createdAt,value
2023-02-01T00:03:14.066Z,77.78
2023-02-01T00:08:15.776Z,77.23
2023-02-01T00:13:17.594Z,77.32
2023-02-01T00:18:19.445Z,77.36
2023-02-01T00:23:21.324Z,77.28
2023-02-01T00:28:23.241Z,77.32
2023-02-01T00:33:25.454Z,77.43
2023-02-01T00:38:28.775Z,77.30
2023-02-01T00:43:33.183Z,76.98
2023-02-01T00:48:35.100Z,77.15
2023-02-01T00:53:37.781Z,76.71
2023-02-01T00:58:41.304Z,76.44
2023-02-01T01:03:46.055Z,76.17
2023-02-01T01:08:48.175Z,76.08
2023-02-01T01:13:51.739Z,76.18
2023-02-01T01:18:54.922Z,75.90
2023-02-01T01:23:56.989Z,76.15
2023-02-01T01:29:00.227Z,75.74
2023-02-01T01:34:02.192Z,75.83
2023-02-01T01:39:05.489Z,75.61
2023-02-01T01:44:46.130Z,75.56
2023-02-01T01:49:48.303Z,75.35
2023-02-01T01:54:53.481Z,75.26
2023-02-01T02:00:14.112Z,75.08
2023-02-01T02:05:19.055Z,75.01
2023-02-01T02:10:21.122Z,74.86
2023-02-01T02:15:23.696Z,74.68
2023-02-01T02:20:54.754Z,74.24
2023-02-01T02:26:21.105Z,74.12
2023-02-01T02:31:42.310Z,73.99
2023-02-01T02:36:44.171Z,73.90
2023-02-01T02:42:13.053Z,73.81
2023-02-01T02:47:26.317Z,74.00
2023-02-01T02:52:47.777Z,74.08
2023-02-01T02:58:10.488Z,74.08
2023-02-01T03:03:31.024Z,74.15
2023-02-01T03:08:33.419Z,73.93
2023-02-01T03:13:57.045Z,74.00
2023-02-01T03:19:00.779Z,73.62
2023-02-01T03:24:18.347Z,73.58
2023-02-01T03:29:28.550Z,73.53
2023-02-01T03:34:30.781Z,73.49
2023-02-01T03:39:39.686Z,73.31
2023-02-01T03:44:59.065Z,73.31
2023-02-01T03:50:05.967Z,73.41
2023-02-01T03:55:09.659Z,73.44
2023-02-01T04:00:23.397Z,73.01
2023-02-01T04:05:25.956Z,73.05
2023-02-01T04:10:33.017Z,72.75
2023-02-01T04:15:35.999Z,72.91
2023-02-01T04:20:38.044Z,72.87
2023-02-01T04:25:39.764Z,72.76
2023-02-01T04:30:41.573Z,72.58
2023-02-01T04:35:43.457Z,72.61
2023-02-01T04:40:48.434Z,72.47
2023-02-01T04:45:50.662Z,72.43
2023-02-01T04:50:52.438Z,72.09
2023-02-01T04:55:55.126Z,72.34
2023-02-01T05:00:57.068Z,71.73
2023-02-01T05:05:58.928Z,71.62
2023-02-01T05:11:03.661Z,71.19
2023-02-01T05:16:06.079Z,71.23
2023-02-01T05:21:08.379Z,70.80
2023-02-01T05:26:10.247Z,71.09
2023-02-01T05:31:12.752Z,70.90
2023-02-01T05:36:15.044Z,71.35
2023-02-01T05:41:16.846Z,71.14
2023-02-01T05:46:18.677Z,71.01
2023-02-01T05:51:20.600Z,71.00
2023-02-01T05:56:22.802Z,71.10
2023-02-01T06:01:24.683Z,71.06
2023-02-01T06:06:26.557Z,71.16
2023-02-01T06:11:33.068Z,71.35
2023-02-01T06:16:35.244Z,71.46
2023-02-01T06:21:37.877Z,71.36
2023-02-01T06:26:40.869Z,71.45
2023-02-01T06:31:43.898Z,71.08
2023-02-01T06:36:45.870Z,71.22
2023-02-01T06:41:49.621Z,71.05
2023-02-01T06:46:51.468Z,71.25
2023-02-01T06:51:53.580Z,71.54
2023-02-01T06:56:55.709Z,71.21
2023-02-01T07:01:57.984Z,71.66
2023-02-01T07:06:59.727Z,71.96
2023-02-01T07:12:01.539Z,72.02
2023-02-01T07:17:03.770Z,72.46
2023-02-01T07:22:05.669Z,72.83
2023-02-01T07:27:07.507Z,73.24
2023-02-01T07:32:09.618Z,73.82
2023-02-01T07:37:11.796Z,73.93
2023-02-01T07:42:13.683Z,74.69
2023-02-01T07:47:15.885Z,75.04
2023-02-01T07:52:18.047Z,74.98
2023-02-01T07:57:20.832Z,75.28
2023-02-01T08:02:22.868Z,75.27
2023-02-01T08:07:24.643Z,75.66
2023-02-01T08:12:26.805Z,75.32
2023-02-01T08:17:29.549Z,75.97
2023-02-01T08:22:34.349Z,76.17
2023-02-01T08:27:36.605Z,76.04
2023-02-01T08:32:38.366Z,76.21
2023-02-01T08:37:40.169Z,76.48
2023-02-01T08:42:54.816Z,76.60
2023-02-01T08:47:57.911Z,76.06
2023-02-01T08:52:59.777Z,75.84
2023-02-01T08:58:01.597Z,75.42
2023-02-01T09:03:03.805Z,75.44
2023-02-01T09:08:07.097Z,75.07
2023-02-01T09:13:10.030Z,74.72
2023-02-01T09:18:12.109Z,74.76
2023-02-01T09:23:14.045Z,74.86
2023-02-01T09:28:15.816Z,74.87
2023-02-01T09:33:18.801Z,75.15
2023-02-01T09:38:20.706Z,75.39
2023-02-01T09:43:51.683Z,75.79
2023-02-01T09:49:01.985Z,76.27
2023-02-01T09:54:30.798Z,76.38
2023-02-01T09:59:59.381Z,76.79
2023-02-01T10:05:02.130Z,77.38
2023-02-01T10:10:43.076Z,77.83
2023-02-01T10:16:26.909Z,78.43
2023-02-01T10:22:05.640Z,79.30
2023-02-01T10:27:07.466Z,79.63
2023-02-01T10:32:22.990Z,80.04
2023-02-01T10:37:29.617Z,80.41
2023-02-01T10:42:32.373Z,80.49
2023-02-01T10:47:34.185Z,80.89
2023-02-01T10:52:54.003Z,81.10
2023-02-01T10:58:01.081Z,81.46
2023-02-01T11:03:31.722Z,81.66
2023-02-01T11:08:33.640Z,81.46
2023-02-01T11:13:40.498Z,81.51
2023-02-01T11:18:42.936Z,81.61
2023-02-01T11:23:46.620Z,81.20
2023-02-01T11:28:55.377Z,80.87
2023-02-01T11:34:07.260Z,80.87
2023-02-01T11:39:31.162Z,80.70
2023-02-01T11:44:39.258Z,80.44
2023-02-01T11:49:41.074Z,80.20
2023-02-01T11:55:05.989Z,79.93
2023-02-01T12:00:35.961Z,79.47
2023-02-01T12:05:55.818Z,79.47
2023-02-01T12:11:34.532Z,79.56
2023-02-01T12:16:57.550Z,79.28
2023-02-01T12:22:08.210Z,79.30
2023-02-01T12:27:10.184Z,78.85
2023-02-01T12:32:40.397Z,78.49
2023-02-01T12:38:03.743Z,77.95
2023-02-01T12:43:22.698Z,78.02
2023-02-01T12:48:34.927Z,77.98
2023-02-01T12:53:56.973Z,77.86
2023-02-01T12:59:03.696Z,77.56
2023-02-01T13:04:45.793Z,77.21
2023-02-01T13:10:02.021Z,76.81
2023-02-01T13:15:15.950Z,76.89
2023-02-01T13:20:25.997Z,76.54
2023-02-01T13:25:44.947Z,76.62
2023-02-01T13:30:55.567Z,75.99
2023-02-01T13:36:31.574Z,75.92
2023-02-01T13:41:41.063Z,75.78
2023-02-01T13:46:46.583Z,75.17
2023-02-01T13:51:52.341Z,75.15
2023-02-01T13:56:55.138Z,75.17
2023-02-01T14:01:56.895Z,74.82
2023-02-01T14:06:59.333Z,74.51
2023-02-01T14:12:39.889Z,74.04
2023-02-01T14:17:42.468Z,73.30
2023-02-01T14:22:44.389Z,72.77
2023-02-01T14:27:46.333Z,71.84
2023-02-01T14:32:48.276Z,71.99
2023-02-01T14:37:54.769Z,71.94
2023-02-01T14:42:58.199Z,71.78
2023-02-01T14:48:06.283Z,71.30
2023-02-01T14:53:11.259Z,71.03
2023-02-01T14:58:40.614Z,71.17
2023-02-01T15:04:08.257Z,70.81
2023-02-01T15:09:15.457Z,70.85
2023-02-01T15:14:17.311Z,70.78
2023-02-01T15:19:19.160Z,70.87
2023-02-01T15:24:30.076Z,71.43
2023-02-01T15:29:34.526Z,71.84
2023-02-01T15:34:50.890Z,72.12
2023-02-01T15:40:10.853Z,72.25
2023-02-01T15:45:21.326Z,72.58
2023-02-01T15:50:25.360Z,72.38
2023-02-01T15:55:43.806Z,72.69
2023-02-01T16:00:50.158Z,72.58
2023-02-01T16:06:01.138Z,72.98
2023-02-01T16:11:26.733Z,73.82
2023-02-01T16:16:30.016Z,74.45
2023-02-01T16:21:31.868Z,75.21
2023-02-01T16:26:35.263Z,75.37
2023-02-01T16:31:40.652Z,75.79
2023-02-01T16:36:42.708Z,76.32
2023-02-01T16:41:46.302Z,76.47
2023-02-01T16:46:49.651Z,76.70
2023-02-01T16:51:57.463Z,76.91
2023-02-01T16:56:59.274Z,77.21
2023-02-01T17:02:01.169Z,77.54
2023-02-01T17:07:09.848Z,77.75
2023-02-01T17:12:28.252Z,77.86
2023-02-01T17:17:39.712Z,77.72
2023-02-01T17:22:41.668Z,77.70
2023-02-01T17:27:45.366Z,77.69
2023-02-01T17:32:47.197Z,77.81
2023-02-01T17:37:50.057Z,78.17
2023-02-01T17:42:52.711Z,78.45
2023-02-01T17:47:57.312Z,78.65
2023-02-01T17:52:59.365Z,78.74
2023-02-01T17:58:01.136Z,78.78
2023-02-01T18:03:03.360Z,78.95
2023-02-01T18:08:05.395Z,79.03
2023-02-01T18:13:07.171Z,79.04
2023-02-01T18:18:09.093Z,79.06
2023-02-01T18:23:24.189Z,79.12
2023-02-01T18:28:26.047Z,79.22
2023-02-01T18:33:27.867Z,79.38
2023-02-01T18:38:29.703Z,79.33
2023-02-01T18:43:31.516Z,79.50
2023-02-01T18:48:33.470Z,79.35
2023-02-01T18:53:35.247Z,79.29
2023-02-01T18:58:37.006Z,79.38
2023-02-01T19:03:42.299Z,79.29
2023-02-01T19:08:51.459Z,79.30
2023-02-01T19:13:54.867Z,79.36
2023-02-01T19:18:56.703Z,79.27
2023-02-01T19:23:58.767Z,79.15
2023-02-01T19:29:00.722Z,79.38
2023-02-01T19:34:02.825Z,79.34
2023-02-01T19:39:04.712Z,79.25
2023-02-01T19:44:06.624Z,79.16
2023-02-01T19:49:12.155Z,79.55
2023-02-01T19:54:15.645Z,79.75
2023-02-01T19:59:18.895Z,79.53
2023-02-01T20:04:21.058Z,79.67
2023-02-01T20:09:25.404Z,79.66
2023-02-01T20:14:27.365Z,79.48
2023-02-01T20:19:30.067Z,79.54
2023-02-01T20:24:31.874Z,79.45
2023-02-01T20:29:34.779Z,79.42
2023-02-01T20:34:36.789Z,79.14
2023-02-01T20:39:38.609Z,79.22
2023-02-01T20:44:40.401Z,79.31
2023-02-01T20:49:42.290Z,79.60
2023-02-01T20:54:44.191Z,79.81
2023-02-01T20:59:47.301Z,79.86
2023-02-01T21:04:51.498Z,79.65
2023-02-01T21:09:54.859Z,79.87
2023-02-01T21:14:57.853Z,79.74
2023-02-01T21:20:01.608Z,79.64
2023-02-01T21:25:06.412Z,79.56
2023-02-01T21:30:12.191Z,79.65
2023-02-01T21:35:14.202Z,79.47
2023-02-01T21:40:16.446Z,79.57
2023-02-01T21:45:18.521Z,79.49
2023-02-01T21:50:21.549Z,79.57
2023-02-01T21:55:23.501Z,79.69
2023-02-01T22:00:25.529Z,79.64
2023-02-01T22:05:27.446Z,79.67
2023-02-01T22:10:29.331Z,79.63
2023-02-01T22:15:31.095Z,79.76
2023-02-01T22:20:32.992Z,79.86
2023-02-01T22:25:35.288Z,80.10
2023-02-01T22:30:37.202Z,80.01
2023-02-01T22:35:39.037Z,80.38
2023-02-01T22:40:40.820Z,80.47
2023-02-01T22:45:42.666Z,80.45
2023-02-01T22:50:45.724Z,80.56
2023-02-01T22:55:47.533Z,80.23
2023-02-01T23:00:49.387Z,80.41
2023-02-01T23:05:51.160Z,80.76
2023-02-01T23:10:59.402Z,80.20
2023-02-01T23:16:06.239Z,80.07
2023-02-01T23:21:11.474Z,79.88
2023-02-01T23:26:13.331Z,79.77
2023-02-01T23:31:17.525Z,79.70
2023-02-01T23:36:22.728Z,79.71
2023-02-01T23:41:28.623Z,79.70
2023-02-01T23:46:41.734Z,79.90
2023-02-01T23:51:48.184Z,79.61
2023-02-01T23:56:50.057Z,79.78
